createdAt,value
2023-05-12T00:00:23.344Z,9.46
2023-05-12T00:00:53.722Z,9.46
2023-05-12T00:01:26.447Z,9.46
2023-05-12T00:01:57.700Z,9.46
2023-05-12T00:02:30.572Z,9.46
2023-05-12T00:03:01.857Z,9.46
2023-05-12T00:03:34.460Z,9.46
2023-05-12T00:04:05.722Z,9.46
2023-05-12T00:04:38.394Z,9.46
2023-05-12T00:05:10.011Z,9.46
2023-05-12T00:05:42.406Z,9.46
2023-05-12T00:06:13.764Z,9.46
2023-05-12T00:06:46.544Z,9.46
2023-05-12T00:07:17.616Z,9.46
2023-05-12T00:07:50.519Z,9.46
2023-05-12T00:08:21.710Z,9.46
2023-05-12T00:08:54.521Z,9.46
2023-05-12T00:09:25.519Z,9.46
2023-05-12T00:09:58.591Z,9.46
2023-05-12T00:10:30.384Z,9.46
2023-05-12T00:11:02.352Z,9.46
2023-05-12T00:11:33.818Z,9.51
2023-05-12T00:12:06.789Z,9.51
2023-05-12T00:12:37.709Z,9.46
2023-05-12T00:13:10.587Z,9.46
2023-05-12T00:13:41.933Z,9.46
2023-05-12T00:14:14.660Z,9.46
2023-05-12T00:14:45.784Z,9.46
2023-05-12T00:15:19.582Z,9.46
2023-05-12T00:15:50.070Z,9.46
2023-05-12T00:16:22.584Z,9.46
2023-05-12T00:16:53.968Z,9.51
2023-05-12T00:17:26.710Z,9.51
2023-05-12T00:17:58.021Z,9.46
2023-05-12T00:18:30.715Z,9.46
2023-05-12T00:19:01.799Z,9.46
2023-05-12T00:19:34.689Z,9.46
2023-05-12T00:20:05.746Z,9.46
2023-05-12T00:20:39.221Z,9.46
2023-05-12T00:21:09.919Z,9.46
2023-05-12T00:21:42.262Z,9.46
2023-05-12T00:22:13.590Z,9.46
2023-05-12T00:22:46.601Z,9.46
2023-05-12T00:23:17.742Z,9.46
2023-05-12T00:23:50.316Z,9.46
2023-05-12T00:24:21.655Z,9.46
2023-05-12T00:24:54.551Z,9.46
2023-05-12T00:25:25.790Z,9.46
2023-05-12T00:25:58.621Z,9.46
2023-05-12T00:26:29.746Z,9.46
2023-05-12T00:27:02.539Z,9.46
2023-05-12T00:27:33.572Z,9.46
2023-05-12T00:28:06.662Z,9.46
2023-05-12T00:28:37.713Z,9.46
2023-05-12T00:29:10.535Z,9.46
2023-05-12T00:29:41.711Z,9.46
2023-05-12T00:30:15.341Z,9.46
2023-05-12T00:30:45.752Z,9.46
2023-05-12T00:31:18.543Z,9.46
2023-05-12T00:31:49.920Z,9.46
2023-05-12T00:32:22.888Z,9.46
2023-05-12T00:32:53.801Z,9.46
2023-05-12T00:33:26.607Z,9.46
2023-05-12T00:33:57.988Z,9.46
2023-05-12T00:34:30.669Z,9.46
2023-05-12T00:35:02.211Z,9.46
2023-05-12T00:35:34.674Z,9.46
2023-05-12T00:36:06.489Z,9.46
2023-05-12T00:36:38.580Z,9.46
2023-05-12T00:37:09.747Z,9.46
2023-05-12T00:37:42.801Z,9.46
2023-05-12T00:38:13.902Z,9.46
2023-05-12T00:38:46.735Z,9.46
2023-05-12T00:39:17.889Z,9.46
2023-05-12T00:39:50.798Z,9.46
2023-05-12T00:40:22.035Z,9.46
2023-05-12T00:40:54.347Z,9.46
2023-05-12T00:41:25.802Z,9.46
2023-05-12T00:41:58.357Z,9.46
2023-05-12T00:42:29.743Z,9.46
2023-05-12T00:43:02.839Z,9.46
2023-05-12T00:43:33.825Z,9.46
2023-05-12T00:44:06.394Z,9.46
2023-05-12T00:44:37.665Z,9.46
2023-05-12T00:45:11.515Z,9.46
2023-05-12T00:45:41.715Z,9.46
2023-05-12T00:46:14.511Z,9.46
2023-05-12T00:46:45.702Z,9.46
2023-05-12T00:47:18.822Z,9.46
2023-05-12T00:47:49.675Z,9.46
2023-05-12T00:48:22.542Z,9.46
2023-05-12T00:48:53.794Z,9.46
2023-05-12T00:49:26.588Z,9.46
2023-05-12T00:49:57.511Z,9.46
2023-05-12T00:50:30.968Z,9.46
2023-05-12T00:51:01.759Z,9.46
2023-05-12T00:51:34.356Z,9.46
2023-05-12T00:52:05.729Z,9.35
2023-05-12T00:52:38.611Z,9.35
2023-05-12T00:53:09.623Z,9.46
2023-05-12T00:53:49.292Z,9.46
2023-05-12T00:54:13.627Z,9.46
2023-05-12T00:54:46.502Z,9.46
2023-05-12T00:55:17.895Z,9.46
2023-05-12T00:55:50.716Z,9.46
2023-05-12T00:56:21.688Z,9.46
2023-05-12T00:56:54.419Z,9.46
2023-05-12T00:57:25.623Z,9.46
2023-05-12T00:57:58.598Z,9.46
2023-05-12T00:58:29.815Z,9.35
2023-05-12T00:59:02.471Z,9.35
2023-05-12T00:59:33.865Z,9.46
2023-05-12T01:00:08.612Z,9.46
2023-05-12T01:00:37.912Z,9.46
2023-05-12T01:01:10.666Z,9.46
2023-05-12T01:01:42.060Z,9.46
2023-05-12T01:02:14.825Z,9.46
2023-05-12T01:02:45.962Z,9.46
2023-05-12T01:03:18.785Z,9.46
2023-05-12T01:03:50.012Z,9.46
2023-05-12T01:04:22.690Z,9.46
2023-05-12T01:04:53.892Z,9.46
2023-05-12T01:05:26.917Z,9.46
2023-05-12T01:05:57.903Z,9.35
2023-05-12T01:06:30.440Z,9.35
2023-05-12T01:07:01.872Z,9.35
2023-05-12T01:07:34.924Z,9.35
2023-05-12T01:08:05.593Z,9.35
2023-05-12T01:08:38.674Z,9.35
2023-05-12T01:09:09.955Z,9.35
2023-05-12T01:09:42.797Z,9.35
2023-05-12T01:10:14.154Z,9.35
2023-05-12T01:10:46.699Z,9.35
2023-05-12T01:11:18.051Z,9.46
2023-05-12T01:11:50.581Z,9.46
2023-05-12T01:12:21.875Z,9.46
2023-05-12T01:12:54.638Z,9.46
2023-05-12T01:13:25.864Z,9.46
2023-05-12T01:13:58.562Z,9.46
2023-05-12T01:14:29.771Z,9.46
2023-05-12T01:15:04.281Z,9.46
2023-05-12T01:15:33.774Z,9.35
2023-05-12T01:16:06.729Z,9.35
2023-05-12T01:16:37.972Z,9.35
2023-05-12T01:17:10.728Z,9.35
2023-05-12T01:17:41.749Z,9.35
2023-05-12T01:18:14.525Z,9.35
2023-05-12T01:18:45.677Z,9.46
2023-05-12T01:19:18.430Z,9.46
2023-05-12T01:19:49.712Z,9.35
2023-05-12T01:20:22.910Z,9.35
2023-05-12T01:20:53.577Z,9.35
2023-05-12T01:21:26.340Z,9.35
2023-05-12T01:21:57.624Z,9.35
2023-05-12T01:22:30.686Z,9.35
2023-05-12T01:23:01.641Z,9.35
2023-05-12T01:23:34.243Z,9.35
2023-05-12T01:24:05.702Z,9.35
2023-05-12T01:24:38.678Z,9.35
2023-05-12T01:25:09.801Z,9.35
2023-05-12T01:25:42.488Z,9.35
2023-05-12T01:26:13.762Z,9.35
2023-05-12T01:26:46.424Z,9.35
2023-05-12T01:27:17.667Z,9.35
2023-05-12T01:27:50.680Z,9.35
2023-05-12T01:28:21.707Z,9.35
2023-05-12T01:28:54.391Z,9.35
2023-05-12T01:29:25.627Z,9.35
2023-05-12T01:29:58.391Z,9.35
2023-05-12T01:30:30.701Z,9.35
2023-05-12T01:31:02.578Z,9.35
2023-05-12T01:31:33.742Z,9.35
2023-05-12T01:32:06.332Z,9.35
2023-05-12T01:32:37.779Z,9.35
2023-05-12T01:33:10.623Z,9.35
2023-05-12T01:33:41.738Z,9.35
2023-05-12T01:34:14.279Z,9.35
2023-05-12T01:34:45.805Z,9.35
2023-05-12T01:35:18.980Z,9.35
2023-05-12T01:35:49.685Z,9.35
2023-05-12T01:36:22.734Z,9.35
2023-05-12T01:36:53.809Z,9.35
2023-05-12T01:37:26.984Z,9.35
2023-05-12T01:37:57.719Z,9.35
2023-05-12T01:38:30.679Z,9.35
2023-05-12T01:39:01.925Z,9.35
2023-05-12T01:39:34.489Z,9.35
2023-05-12T01:40:05.978Z,9.35
2023-05-12T01:40:39.471Z,9.35
2023-05-12T01:41:09.690Z,9.35
2023-05-12T01:41:42.747Z,9.35
2023-05-12T01:42:13.872Z,9.35
2023-05-12T01:42:46.813Z,9.35
2023-05-12T01:43:18.241Z,9.35
2023-05-12T01:43:50.813Z,9.35
2023-05-12T01:44:21.640Z,9.25
2023-05-12T01:44:54.509Z,9.25
2023-05-12T01:45:26.728Z,9.25
2023-05-12T01:45:58.880Z,9.25
2023-05-12T01:46:29.726Z,9.25
2023-05-12T01:47:02.608Z,9.25
2023-05-12T01:47:33.744Z,9.25
2023-05-12T01:48:06.904Z,9.25
2023-05-12T01:48:37.588Z,9.25
2023-05-12T01:49:10.571Z,9.25
2023-05-12T01:49:41.736Z,9.25
2023-05-12T01:50:14.770Z,9.25
2023-05-12T01:50:45.613Z,9.25
2023-05-12T01:51:18.742Z,9.25
2023-05-12T01:51:49.810Z,9.25
2023-05-12T01:52:22.603Z,9.25
2023-05-12T01:52:53.801Z,9.25
2023-05-12T01:53:26.607Z,9.25
2023-05-12T01:53:57.633Z,9.25
2023-05-12T01:54:30.707Z,9.25
2023-05-12T01:55:02.127Z,9.25
2023-05-12T01:55:34.556Z,9.25
2023-05-12T01:56:05.671Z,9.25
2023-05-12T01:56:38.704Z,9.25
2023-05-12T01:57:09.835Z,9.25
2023-05-12T01:57:42.421Z,9.25
2023-05-12T01:58:13.627Z,9.25
2023-05-12T01:58:46.533Z,9.25
2023-05-12T01:59:17.727Z,9.25
2023-05-12T01:59:51.474Z,9.25
2023-05-12T02:00:23.565Z,9.25
2023-05-12T02:00:54.862Z,9.25
2023-05-12T02:01:25.863Z,9.25
2023-05-12T02:01:58.947Z,9.25
2023-05-12T02:02:30.275Z,9.25
2023-05-12T02:03:02.891Z,9.25
2023-05-12T02:03:34.174Z,9.25
2023-05-12T02:04:07.130Z,9.25
2023-05-12T02:04:38.416Z,9.25
2023-05-12T02:05:11.057Z,9.25
2023-05-12T02:05:42.176Z,9.25
2023-05-12T02:06:14.775Z,9.25
2023-05-12T02:06:45.826Z,9.25
2023-05-12T02:07:18.605Z,9.25
2023-05-12T02:07:50.005Z,9.25
2023-05-12T02:08:22.795Z,9.25
2023-05-12T02:08:53.946Z,9.25
2023-05-12T02:09:26.650Z,9.25
2023-05-12T02:09:57.897Z,9.25
2023-05-12T02:10:30.741Z,9.25
2023-05-12T02:11:01.698Z,9.25
2023-05-12T02:11:34.564Z,9.25
2023-05-12T02:12:05.662Z,9.25
2023-05-12T02:12:39.807Z,9.25
2023-05-12T02:13:09.743Z,9.25
2023-05-12T02:13:42.613Z,9.25
2023-05-12T02:14:13.703Z,9.40
2023-05-12T02:14:46.685Z,9.40
2023-05-12T02:15:18.671Z,9.40
2023-05-12T02:15:50.656Z,9.40
2023-05-12T02:16:21.776Z,9.40
2023-05-12T02:16:54.657Z,9.40
2023-05-12T02:17:25.817Z,9.40
2023-05-12T02:17:58.533Z,9.40
2023-05-12T02:18:29.725Z,9.40
2023-05-12T02:19:02.777Z,9.40
2023-05-12T02:19:33.765Z,9.40
2023-05-12T02:20:06.636Z,9.40
2023-05-12T02:20:37.806Z,9.40
2023-05-12T02:21:10.263Z,9.40
2023-05-12T02:21:41.731Z,9.40
2023-05-12T02:22:14.700Z,9.40
2023-05-12T02:22:45.725Z,9.40
2023-05-12T02:23:18.289Z,9.40
2023-05-12T02:23:49.692Z,9.40
2023-05-12T02:24:22.588Z,9.40
2023-05-12T02:24:53.838Z,9.40
2023-05-12T02:25:26.983Z,9.40
2023-05-12T02:25:57.732Z,9.40
2023-05-12T02:26:30.593Z,9.40
2023-05-12T02:27:01.697Z,9.40
2023-05-12T02:27:34.598Z,9.40
2023-05-12T02:28:05.767Z,9.40
2023-05-12T02:28:38.648Z,9.40
2023-05-12T02:29:09.730Z,9.40
2023-05-12T02:29:42.501Z,9.40
2023-05-12T02:30:14.656Z,9.40
2023-05-12T02:30:46.529Z,9.40
2023-05-12T02:31:17.710Z,9.40
2023-05-12T02:31:50.725Z,9.40
2023-05-12T02:32:21.617Z,9.40
2023-05-12T02:32:37.847Z,9.40
2023-05-12T02:33:09.819Z,9.40
2023-05-12T02:33:41.718Z,9.40
2023-05-12T02:34:14.489Z,9.40
2023-05-12T02:34:45.665Z,9.40
2023-05-12T02:35:18.768Z,9.40
2023-05-12T02:35:49.731Z,9.40
2023-05-12T02:36:22.739Z,9.40
2023-05-12T02:36:53.544Z,9.40
2023-05-12T02:37:26.432Z,9.40
2023-05-12T02:37:57.619Z,9.40
2023-05-12T02:38:30.409Z,9.40
2023-05-12T02:39:01.689Z,9.40
2023-05-12T02:39:34.559Z,9.40
2023-05-12T02:40:05.885Z,9.40
2023-05-12T02:40:39.500Z,9.40
2023-05-12T02:41:09.659Z,9.40
2023-05-12T02:41:42.605Z,9.40
2023-05-12T02:42:13.821Z,9.40
2023-05-12T02:42:46.682Z,9.40
2023-05-12T02:43:17.669Z,9.40
2023-05-12T02:43:50.571Z,9.40
2023-05-12T02:44:21.954Z,9.40
2023-05-12T02:44:54.639Z,9.40
2023-05-12T02:45:27.018Z,9.40
2023-05-12T02:45:58.990Z,9.40
2023-05-12T02:46:29.901Z,9.40
2023-05-12T02:47:02.678Z,9.40
2023-05-12T02:47:34.086Z,9.40
2023-05-12T02:48:06.956Z,9.40
2023-05-12T02:48:37.935Z,9.40
2023-05-12T02:49:10.686Z,9.40
2023-05-12T02:49:42.102Z,9.40
2023-05-12T02:50:14.976Z,9.40
2023-05-12T02:50:45.739Z,9.40
2023-05-12T02:51:18.817Z,9.40
2023-05-12T02:51:49.873Z,9.40
2023-05-12T02:52:22.746Z,9.40
2023-05-12T02:52:53.940Z,9.40
2023-05-12T02:53:26.988Z,9.40
2023-05-12T02:53:57.653Z,9.40
2023-05-12T02:54:30.455Z,9.40
2023-05-12T02:55:02.261Z,9.40
2023-05-12T02:55:34.529Z,9.40
2023-05-12T02:56:05.751Z,9.40
2023-05-12T02:56:38.424Z,9.40
2023-05-12T02:57:09.795Z,9.40
2023-05-12T02:57:42.486Z,9.40
2023-05-12T02:58:13.800Z,9.40
2023-05-12T02:58:46.519Z,9.40
2023-05-12T02:59:17.597Z,9.40
2023-05-12T02:59:50.827Z,9.40
2023-05-12T03:00:22.945Z,9.40
2023-05-12T03:01:06.773Z,9.40
2023-05-12T03:01:25.839Z,9.40
2023-05-12T03:01:58.522Z,9.40
2023-05-12T03:02:29.879Z,9.40
2023-05-12T03:03:02.702Z,9.40
2023-05-12T03:03:33.783Z,9.40
2023-05-12T03:04:06.582Z,9.40
2023-05-12T03:04:37.813Z,9.40
2023-05-12T03:05:10.775Z,9.40
2023-05-12T03:05:41.855Z,9.40
2023-05-12T03:06:16.306Z,9.40
2023-05-12T03:06:45.587Z,9.40
2023-05-12T03:07:18.609Z,9.40
2023-05-12T03:07:49.799Z,9.40
2023-05-12T03:08:22.689Z,9.40
2023-05-12T03:08:53.657Z,9.40
2023-05-12T03:09:09.844Z,9.40
2023-05-12T03:09:41.608Z,9.40
2023-05-12T03:10:14.090Z,9.40
2023-05-12T03:10:45.689Z,9.51
2023-05-12T03:11:17.640Z,9.51
2023-05-12T03:11:50.681Z,9.40
2023-05-12T03:12:21.686Z,9.40
2023-05-12T03:12:54.758Z,9.40
2023-05-12T03:13:25.750Z,9.40
2023-05-12T03:13:58.475Z,9.51
2023-05-12T03:14:29.774Z,9.51
2023-05-12T03:15:03.918Z,9.51
2023-05-12T03:15:33.838Z,9.51
2023-05-12T03:16:06.703Z,9.40
2023-05-12T03:16:37.949Z,9.40
2023-05-12T03:17:10.577Z,9.40
2023-05-12T03:17:41.730Z,9.40
2023-05-12T03:18:14.638Z,9.51
2023-05-12T03:18:45.656Z,9.51
2023-05-12T03:19:18.407Z,9.40
2023-05-12T03:19:49.796Z,9.40
2023-05-12T03:20:22.968Z,9.40
2023-05-12T03:20:53.754Z,9.40
2023-05-12T03:21:26.510Z,9.51
2023-05-12T03:21:57.855Z,9.51
2023-05-12T03:22:30.654Z,9.51
2023-05-12T03:23:01.757Z,9.51
2023-05-12T03:23:34.753Z,9.51
2023-05-12T03:24:05.694Z,9.51
2023-05-12T03:24:38.368Z,9.51
2023-05-12T03:25:09.989Z,9.51
2023-05-12T03:25:42.623Z,9.40
2023-05-12T03:26:13.738Z,9.40
2023-05-12T03:26:46.455Z,9.40
2023-05-12T03:27:17.738Z,9.40
2023-05-12T03:27:50.678Z,9.51
2023-05-12T03:28:21.658Z,9.51
2023-05-12T03:28:54.518Z,9.40
2023-05-12T03:29:25.776Z,9.40
2023-05-12T03:29:58.516Z,9.40
2023-05-12T03:30:30.818Z,9.40
2023-05-12T03:31:02.679Z,9.40
2023-05-12T03:31:33.739Z,9.40
2023-05-12T03:32:06.637Z,9.51
2023-05-12T03:32:37.903Z,9.51
2023-05-12T03:33:10.858Z,9.40
2023-05-12T03:33:41.656Z,9.40
2023-05-12T03:34:14.618Z,9.40
2023-05-12T03:34:45.738Z,9.40
2023-05-12T03:35:18.645Z,9.40
2023-05-12T03:35:49.810Z,9.40
2023-05-12T03:36:22.722Z,9.40
2023-05-12T03:36:53.800Z,9.40
2023-05-12T03:37:26.587Z,9.40
2023-05-12T03:37:57.691Z,9.40
2023-05-12T03:38:30.543Z,9.40
2023-05-12T03:39:01.738Z,9.40
2023-05-12T03:39:34.607Z,9.51
2023-05-12T03:40:05.995Z,9.51
2023-05-12T03:40:38.350Z,9.40
2023-05-12T03:41:09.701Z,9.40
2023-05-12T03:41:42.411Z,9.40
2023-05-12T03:42:13.756Z,9.40
2023-05-12T03:42:46.643Z,9.40
2023-05-12T03:43:17.719Z,9.40
2023-05-12T03:43:50.532Z,9.51
2023-05-12T03:44:21.851Z,9.51
2023-05-12T03:44:54.507Z,9.51
2023-05-12T03:45:26.836Z,9.51
2023-05-12T03:45:58.975Z,9.51
2023-05-12T03:46:29.745Z,9.51
2023-05-12T03:47:02.450Z,9.51
2023-05-12T03:47:33.937Z,9.51
2023-05-12T03:48:06.589Z,9.51
2023-05-12T03:48:37.690Z,9.51
2023-05-12T03:49:10.547Z,9.51
2023-05-12T03:49:41.729Z,9.51
2023-05-12T03:50:14.682Z,9.51
2023-05-12T03:50:45.671Z,9.51
2023-05-12T03:51:18.436Z,9.51
2023-05-12T03:51:49.580Z,9.51
2023-05-12T03:52:22.845Z,9.51
2023-05-12T03:52:53.641Z,9.51
2023-05-12T03:53:26.631Z,9.51
2023-05-12T03:53:57.504Z,9.51
2023-05-12T03:54:31.424Z,9.51
2023-05-12T03:55:02.180Z,9.51
2023-05-12T03:55:34.194Z,9.51
2023-05-12T03:56:05.688Z,9.51
2023-05-12T03:56:39.605Z,9.51
2023-05-12T03:57:09.804Z,9.51
2023-05-12T03:57:42.742Z,9.51
2023-05-12T03:58:13.993Z,9.51
2023-05-12T03:58:46.721Z,9.51
2023-05-12T03:59:17.840Z,9.51
2023-05-12T03:59:50.648Z,9.51
2023-05-12T04:00:23.245Z,9.51
2023-05-12T04:00:54.619Z,9.51
2023-05-12T04:01:26.044Z,9.51
2023-05-12T04:01:58.727Z,9.51
2023-05-12T04:02:30.153Z,9.51
2023-05-12T04:03:02.747Z,9.51
2023-05-12T04:03:34.059Z,9.51
2023-05-12T04:04:06.751Z,9.51
2023-05-12T04:04:37.965Z,9.51
2023-05-12T04:05:10.975Z,9.51
2023-05-12T04:05:42.030Z,9.51
2023-05-12T04:06:14.605Z,9.51
2023-05-12T04:06:45.878Z,9.51
2023-05-12T04:07:19.609Z,9.51
2023-05-12T04:07:50.170Z,9.51
2023-05-12T04:08:22.687Z,9.62
2023-05-12T04:08:53.928Z,9.62
2023-05-12T04:09:26.726Z,9.62
2023-05-12T04:09:58.107Z,9.62
2023-05-12T04:10:30.853Z,9.62
2023-05-12T04:11:02.170Z,9.62
2023-05-12T04:11:34.834Z,9.62
2023-05-12T04:12:05.955Z,9.62
2023-05-12T04:12:38.688Z,9.62
2023-05-12T04:13:10.015Z,9.62
2023-05-12T04:13:42.756Z,9.62
2023-05-12T04:14:13.913Z,9.62
2023-05-12T04:14:46.778Z,9.62
2023-05-12T04:15:19.027Z,9.62
2023-05-12T04:15:50.813Z,9.62
2023-05-12T04:16:21.934Z,9.62
2023-05-12T04:16:54.828Z,9.62
2023-05-12T04:17:26.101Z,9.62
2023-05-12T04:17:58.718Z,9.62
2023-05-12T04:18:30.016Z,9.62
2023-05-12T04:19:02.941Z,9.62
2023-05-12T04:19:33.979Z,9.62
2023-05-12T04:20:06.985Z,9.62
2023-05-12T04:20:37.941Z,9.62
2023-05-12T04:21:10.703Z,9.62
2023-05-12T04:21:41.899Z,9.62
2023-05-12T04:22:14.806Z,9.62
2023-05-12T04:22:45.986Z,9.62
2023-05-12T04:23:18.620Z,9.62
2023-05-12T04:23:50.027Z,9.62
2023-05-12T04:24:22.709Z,9.67
2023-05-12T04:24:53.924Z,9.67
2023-05-12T04:25:26.968Z,9.67
2023-05-12T04:25:58.084Z,9.67
2023-05-12T04:26:30.828Z,9.67
2023-05-12T04:27:01.912Z,9.67
2023-05-12T04:27:34.791Z,9.67
2023-05-12T04:28:06.046Z,9.67
2023-05-12T04:28:38.841Z,9.67
2023-05-12T04:29:09.962Z,9.67
2023-05-12T04:29:42.684Z,9.67
2023-05-12T04:30:14.958Z,9.67
2023-05-12T04:30:46.814Z,9.51
2023-05-12T04:31:18.017Z,9.51
2023-05-12T04:31:50.865Z,9.51
2023-05-12T04:32:22.129Z,9.51
2023-05-12T04:32:54.842Z,9.51
2023-05-12T04:33:26.067Z,9.51
2023-05-12T04:33:58.898Z,9.51
2023-05-12T04:34:30.001Z,9.51
2023-05-12T04:35:03.115Z,9.62
2023-05-12T04:35:34.080Z,9.62
2023-05-12T04:36:06.633Z,9.62
2023-05-12T04:36:37.949Z,9.62
2023-05-12T04:37:10.812Z,9.62
2023-05-12T04:37:42.136Z,9.62
2023-05-12T04:38:14.867Z,9.62
2023-05-12T04:38:46.108Z,9.62
2023-05-12T04:39:18.821Z,9.62
2023-05-12T04:39:50.224Z,9.62
2023-05-12T04:40:23.333Z,9.62
2023-05-12T04:40:54.030Z,9.62
2023-05-12T04:41:26.986Z,9.62
2023-05-12T04:41:57.979Z,9.62
2023-05-12T04:42:30.769Z,9.62
2023-05-12T04:43:02.101Z,9.62
2023-05-12T04:44:05.885Z,9.74
2023-05-12T04:44:39.779Z,9.74
2023-05-12T04:45:11.140Z,9.74
2023-05-12T04:45:43.151Z,9.74
2023-05-12T04:46:14.049Z,9.74
2023-05-12T04:46:46.784Z,9.90
2023-05-12T04:47:17.935Z,9.90
2023-05-12T04:47:51.010Z,10.01
2023-05-12T04:48:22.028Z,10.01
2023-05-12T04:48:54.678Z,10.17
2023-05-12T04:49:25.949Z,10.17
2023-05-12T04:49:58.900Z,10.28
2023-05-12T04:50:30.357Z,10.28
2023-05-12T04:51:02.721Z,10.28
2023-05-12T04:51:34.086Z,10.28
2023-05-12T04:52:06.700Z,10.40
2023-05-12T04:52:37.998Z,10.40
2023-05-12T04:53:11.487Z,10.51
2023-05-12T04:53:42.048Z,10.51
2023-05-12T04:54:14.735Z,10.51
2023-05-12T04:54:45.939Z,10.51
2023-05-12T04:55:19.290Z,10.61
2023-05-12T04:55:50.153Z,10.61
2023-05-12T04:56:22.889Z,10.66
2023-05-12T04:56:54.026Z,10.66
2023-05-12T04:57:26.870Z,10.77
2023-05-12T04:57:58.023Z,10.77
2023-05-12T04:58:30.890Z,10.74
2023-05-12T04:59:02.118Z,10.74
2023-05-12T04:59:34.877Z,10.74
2023-05-12T05:00:07.384Z,10.74
2023-05-12T05:00:38.898Z,10.85
2023-05-12T05:01:10.046Z,10.85
2023-05-12T05:01:42.869Z,10.85
2023-05-12T05:02:13.892Z,10.85
2023-05-12T05:02:46.736Z,10.78
2023-05-12T05:03:18.184Z,10.78
2023-05-12T05:03:50.856Z,10.78
2023-05-12T05:04:22.027Z,10.78
2023-05-12T05:04:54.663Z,10.83
2023-05-12T05:05:26.278Z,10.83
2023-05-12T05:05:59.110Z,10.68
2023-05-12T05:06:29.972Z,10.68
2023-05-12T05:07:02.850Z,10.52
2023-05-12T05:07:33.966Z,10.52
2023-05-12T05:08:06.920Z,10.35
2023-05-12T05:08:37.987Z,10.35
2023-05-12T05:09:10.875Z,10.18
2023-05-12T05:09:42.075Z,10.18
2023-05-12T05:10:15.030Z,10.13
2023-05-12T05:10:46.013Z,10.13
2023-05-12T05:11:18.708Z,10.13
2023-05-12T05:11:50.130Z,10.13
2023-05-12T05:12:23.036Z,10.02
2023-05-12T05:12:53.993Z,10.02
2023-05-12T05:13:26.741Z,10.02
2023-05-12T05:13:57.876Z,10.02
2023-05-12T05:14:30.922Z,10.02
2023-05-12T05:15:03.725Z,10.02
2023-05-12T05:15:35.016Z,9.75
2023-05-12T05:16:06.025Z,9.75
2023-05-12T05:16:38.839Z,9.75
2023-05-12T05:17:10.083Z,9.75
2023-05-12T05:17:42.752Z,9.64
2023-05-12T05:18:13.909Z,9.64
2023-05-12T05:18:46.971Z,9.79
2023-05-12T05:19:23.334Z,9.79
2023-05-12T05:19:55.945Z,9.68
2023-05-12T05:20:27.942Z,9.68
2023-05-12T05:20:58.520Z,9.68
2023-05-12T05:21:25.893Z,9.68
2023-05-12T05:21:58.723Z,9.68
2023-05-12T05:22:30.142Z,9.68
2023-05-12T05:23:03.015Z,9.68
2023-05-12T05:23:34.017Z,9.68
2023-05-12T05:24:08.496Z,9.63
2023-05-12T05:24:38.064Z,9.63
2023-05-12T05:25:11.113Z,9.63
2023-05-12T05:25:41.972Z,9.63
2023-05-12T05:26:14.806Z,9.63
2023-05-12T05:26:46.148Z,9.63
2023-05-12T05:27:18.888Z,9.63
2023-05-12T05:27:50.043Z,9.63
2023-05-12T05:28:22.810Z,9.63
2023-05-12T05:28:53.904Z,9.63
2023-05-12T05:29:26.790Z,9.63
2023-05-12T05:29:58.058Z,9.63
2023-05-12T05:30:31.881Z,9.63
2023-05-12T05:31:02.088Z,9.63
2023-05-12T05:31:34.952Z,9.80
2023-05-12T05:32:06.192Z,9.80
2023-05-12T05:32:39.609Z,9.80
2023-05-12T05:33:10.171Z,9.80
2023-05-12T05:33:42.765Z,9.80
2023-05-12T05:34:14.009Z,9.80
2023-05-12T05:34:46.634Z,9.80
2023-05-12T05:35:18.398Z,9.80
2023-05-12T05:35:50.892Z,9.80
2023-05-12T05:36:21.836Z,9.80
2023-05-12T05:36:54.695Z,9.80
2023-05-12T05:37:26.002Z,9.80
2023-05-12T05:37:58.810Z,9.80
2023-05-12T05:38:29.970Z,9.80
2023-05-12T05:39:02.996Z,9.80
2023-05-12T05:39:34.133Z,9.80
2023-05-12T05:40:06.901Z,9.63
2023-05-12T05:40:51.567Z,9.63
2023-05-12T05:41:10.846Z,9.68
2023-05-12T05:41:41.935Z,9.68
2023-05-12T05:42:14.843Z,9.68
2023-05-12T05:42:46.039Z,9.68
2023-05-12T05:43:18.815Z,9.68
2023-05-12T05:43:49.920Z,9.68
2023-05-12T05:44:22.820Z,9.68
2023-05-12T05:44:54.093Z,9.68
2023-05-12T05:45:28.258Z,9.68
2023-05-12T05:45:58.120Z,9.68
2023-05-12T05:46:30.930Z,9.79
2023-05-12T05:47:02.336Z,9.79
2023-05-12T05:47:34.977Z,9.79
2023-05-12T05:48:06.040Z,9.79
2023-05-12T05:48:38.782Z,9.91
2023-05-12T05:49:10.053Z,9.91
2023-05-12T05:49:42.867Z,10.08
2023-05-12T05:50:14.321Z,10.08
2023-05-12T05:50:47.020Z,10.08
2023-05-12T05:51:17.935Z,10.08
2023-05-12T05:51:50.685Z,10.08
2023-05-12T05:52:22.257Z,10.08
2023-05-12T05:52:54.792Z,10.19
2023-05-12T05:53:26.063Z,10.19
2023-05-12T05:53:58.877Z,10.02
2023-05-12T05:54:30.115Z,10.02
2023-05-12T05:55:03.094Z,10.02
2023-05-12T05:55:34.066Z,10.02
2023-05-12T05:56:06.918Z,10.13
2023-05-12T05:56:37.972Z,10.13
2023-05-12T05:57:10.810Z,10.13
2023-05-12T05:57:42.007Z,10.13
2023-05-12T05:58:14.911Z,10.13
2023-05-12T05:58:45.964Z,10.13
2023-05-12T05:59:18.715Z,10.18
2023-05-12T05:59:50.111Z,10.18
2023-05-12T06:00:24.192Z,10.02
2023-05-12T06:00:54.071Z,10.02
2023-05-12T06:01:26.730Z,10.13
2023-05-12T06:01:57.939Z,10.13
2023-05-12T06:02:30.810Z,10.13
2023-05-12T06:03:02.208Z,10.13
2023-05-12T06:03:35.050Z,10.13
2023-05-12T06:04:06.007Z,10.13
2023-05-12T06:04:38.932Z,10.25
2023-05-12T06:05:10.295Z,10.25
2023-05-12T06:05:42.894Z,10.25
2023-05-12T06:06:13.951Z,10.25
2023-05-12T06:06:46.855Z,10.25
2023-05-12T06:07:17.950Z,10.25
2023-05-12T06:07:50.990Z,10.08
2023-05-12T06:08:22.035Z,10.08
2023-05-12T06:08:54.917Z,10.08
2023-05-12T06:09:25.843Z,10.08
2023-05-12T06:09:58.960Z,10.18
2023-05-12T06:10:30.463Z,10.18
2023-05-12T06:11:02.797Z,10.18
2023-05-12T06:11:33.989Z,10.18
2023-05-12T06:12:06.935Z,10.18
2023-05-12T06:12:38.153Z,10.18
2023-05-12T06:13:10.809Z,10.18
2023-05-12T06:13:41.907Z,10.18
2023-05-12T06:14:14.674Z,10.18
2023-05-12T06:14:45.941Z,10.18
2023-05-12T06:15:19.963Z,10.01
2023-05-12T06:15:50.205Z,10.01
2023-05-12T06:16:22.753Z,10.01
2023-05-12T06:16:54.124Z,10.01
2023-05-12T06:17:26.799Z,10.01
2023-05-12T06:17:58.101Z,10.01
2023-05-12T06:18:30.738Z,10.18
2023-05-12T06:19:02.491Z,10.18
2023-05-12T06:19:35.298Z,10.01
2023-05-12T06:20:06.161Z,10.01
2023-05-12T06:20:38.803Z,10.01
2023-05-12T06:21:10.841Z,10.01
2023-05-12T06:21:43.086Z,10.01
2023-05-12T06:22:14.578Z,10.01
2023-05-12T06:22:46.816Z,10.01
2023-05-12T06:23:18.233Z,10.01
2023-05-12T06:23:50.913Z,10.18
2023-05-12T06:24:22.111Z,10.18
2023-05-12T06:24:55.009Z,10.12
2023-05-12T06:25:26.356Z,10.12
2023-05-12T06:25:58.985Z,10.12
2023-05-12T06:26:30.271Z,10.12
2023-05-12T06:27:03.005Z,10.12
2023-05-12T06:27:33.951Z,10.12
2023-05-12T06:28:06.918Z,10.12
2023-05-12T06:28:38.138Z,10.12
2023-05-12T06:29:10.992Z,10.12
2023-05-12T06:29:48.985Z,10.12
2023-05-12T06:30:17.774Z,10.12
2023-05-12T06:30:46.332Z,10.12
2023-05-12T06:31:19.634Z,10.12
2023-05-12T06:31:50.424Z,10.12
2023-05-12T06:32:23.069Z,10.17
2023-05-12T06:32:54.402Z,10.17
2023-05-12T06:33:10.391Z,10.17
2023-05-12T06:33:42.285Z,10.12
2023-05-12T06:34:14.336Z,10.12
2023-05-12T06:34:46.345Z,10.17
2023-05-12T06:35:18.935Z,10.17
2023-05-12T06:35:51.508Z,10.17
2023-05-12T06:36:22.457Z,10.17
2023-05-12T06:36:55.519Z,10.17
2023-05-12T06:37:26.288Z,10.17
2023-05-12T06:37:59.158Z,10.17
2023-05-12T06:38:30.412Z,10.17
2023-05-12T06:39:03.045Z,10.12
2023-05-12T06:39:34.209Z,10.12
2023-05-12T06:40:07.584Z,10.12
2023-05-12T06:40:38.279Z,10.12
2023-05-12T06:41:11.022Z,10.12
2023-05-12T06:41:42.226Z,10.12
2023-05-12T06:42:15.330Z,10.12
2023-05-12T06:42:46.143Z,10.12
2023-05-12T06:43:19.053Z,10.12
2023-05-12T06:43:50.300Z,10.12
2023-05-12T06:44:22.996Z,10.12
2023-05-12T06:44:54.077Z,10.12
2023-05-12T06:45:11.918Z,10.12
2023-05-12T06:45:42.368Z,10.12
2023-05-12T06:46:14.247Z,10.12
2023-05-12T06:46:46.530Z,10.12
2023-05-12T06:47:18.238Z,10.12
2023-05-12T06:47:51.242Z,10.12
2023-05-12T06:48:22.272Z,10.12
2023-05-12T06:48:55.089Z,10.12
2023-05-12T06:49:26.361Z,10.12
2023-05-12T06:49:59.422Z,10.12
2023-05-12T06:50:30.790Z,10.01
2023-05-12T06:51:02.860Z,10.01
2023-05-12T06:51:34.232Z,10.18
2023-05-12T06:52:07.313Z,10.18
2023-05-12T06:52:38.333Z,10.29
2023-05-12T06:53:11.132Z,10.29
2023-05-12T06:53:42.227Z,10.29
2023-05-12T06:54:15.907Z,10.29
2023-05-12T06:54:46.511Z,10.29
2023-05-12T06:55:19.893Z,10.29
2023-05-12T06:55:50.203Z,10.29
2023-05-12T06:56:22.949Z,10.29
2023-05-12T06:56:54.173Z,10.29
2023-05-12T06:57:27.027Z,10.29
2023-05-12T06:57:58.292Z,10.29
2023-05-12T06:58:30.971Z,10.29
2023-05-12T06:59:02.785Z,10.34
2023-05-12T06:59:35.611Z,10.34
2023-05-12T07:00:08.771Z,10.34
2023-05-12T07:00:39.863Z,10.34
2023-05-12T07:01:10.915Z,10.34
2023-05-12T07:01:43.664Z,10.34
2023-05-12T07:02:14.750Z,10.45